createdAt,value
2023-12-23T00:00:19.522Z,4.82
2023-12-23T00:05:21.455Z,4.82
2023-12-23T00:10:23.340Z,4.85
2023-12-23T00:15:25.046Z,4.54
2023-12-23T00:20:26.730Z,4.91
2023-12-23T00:25:28.385Z,4.70
2023-12-23T00:30:30.306Z,4.85
2023-12-23T00:35:32.162Z,4.83
2023-12-23T00:40:34.050Z,4.87
2023-12-23T00:45:35.751Z,4.83
2023-12-23T00:50:37.393Z,4.68
2023-12-23T00:55:39.627Z,4.94
2023-12-23T01:00:41.325Z,4.81
2023-12-23T01:05:43.051Z,5.05
2023-12-23T01:10:44.747Z,5.00
2023-12-23T01:15:46.561Z,5.04
2023-12-23T01:20:49.210Z,5.04
2023-12-23T01:25:50.916Z,5.18
2023-12-23T01:30:52.823Z,5.08
2023-12-23T01:35:54.678Z,5.01
2023-12-23T01:40:56.353Z,5.27
2023-12-23T01:46:01.435Z,5.22
2023-12-23T01:51:03.545Z,5.27
2023-12-23T01:56:05.641Z,5.03
2023-12-23T02:01:07.940Z,5.22
2023-12-23T02:06:09.925Z,5.23
2023-12-23T02:11:14.852Z,5.32
2023-12-23T02:16:16.785Z,5.26
2023-12-23T02:21:18.486Z,5.42
2023-12-23T02:26:23.120Z,5.02
2023-12-23T02:31:25.022Z,5.26
2023-12-23T02:36:26.919Z,4.90
2023-12-23T02:41:28.692Z,5.09
2023-12-23T02:46:30.360Z,5.12
2023-12-23T02:51:32.872Z,5.05
2023-12-23T02:56:34.619Z,4.92
2023-12-23T03:01:36.297Z,4.94
2023-12-23T03:06:38.009Z,4.90
2023-12-23T03:11:39.742Z,4.51
2023-12-23T03:16:41.480Z,4.72
2023-12-23T03:21:44.486Z,4.68
2023-12-23T03:26:46.209Z,4.44
2023-12-23T03:31:47.935Z,4.60
2023-12-23T03:36:49.637Z,4.52
2023-12-23T03:41:51.270Z,4.48
2023-12-23T03:46:57.225Z,4.41
2023-12-23T03:51:59.149Z,4.55
2023-12-23T03:57:00.814Z,4.63
2023-12-23T04:02:02.567Z,4.72
2023-12-23T04:07:04.668Z,4.45
2023-12-23T04:12:06.908Z,4.59
2023-12-23T04:17:08.661Z,4.52
2023-12-23T04:22:10.379Z,4.60
2023-12-23T04:27:12.069Z,4.79
2023-12-23T04:32:14.461Z,4.54
2023-12-23T04:37:16.495Z,4.59
2023-12-23T04:42:18.204Z,4.53
2023-12-23T04:47:20.258Z,4.71
2023-12-23T04:52:22.065Z,4.85
2023-12-23T04:57:23.757Z,4.69
2023-12-23T05:02:25.434Z,4.54
2023-12-23T05:07:27.106Z,4.76
2023-12-23T05:12:28.791Z,4.53
2023-12-23T05:17:30.654Z,4.63
2023-12-23T05:22:32.363Z,4.61
2023-12-23T05:27:34.690Z,4.66
2023-12-23T05:32:36.477Z,4.67
2023-12-23T05:37:38.346Z,4.90
2023-12-23T05:42:40.118Z,4.84
2023-12-23T05:47:44.253Z,4.73
2023-12-23T05:52:46.084Z,4.98
2023-12-23T05:57:47.821Z,4.76
2023-12-23T06:02:49.886Z,4.78
2023-12-23T06:07:51.719Z,4.88
2023-12-23T06:12:53.582Z,4.80
2023-12-23T06:17:56.413Z,4.73
2023-12-23T06:22:58.946Z,4.77
2023-12-23T06:28:00.692Z,4.57
2023-12-23T06:33:02.464Z,4.51
2023-12-23T06:38:04.350Z,4.77
2023-12-23T06:43:43.332Z,4.47
2023-12-23T06:48:31.282Z,4.46
2023-12-23T06:53:34.909Z,4.47
2023-12-23T06:58:36.575Z,4.32
2023-12-23T07:03:38.235Z,4.49
2023-12-23T07:08:40.581Z,4.57
2023-12-23T07:13:42.244Z,4.50
2023-12-23T07:18:44.411Z,4.43
2023-12-23T07:23:46.352Z,4.43
2023-12-23T07:28:47.990Z,4.44
2023-12-23T07:33:49.700Z,4.45
2023-12-23T07:38:51.390Z,4.32
2023-12-23T07:43:53.642Z,4.38
2023-12-23T07:48:55.396Z,4.34
2023-12-23T07:53:57.173Z,4.05
2023-12-23T07:58:59.216Z,4.15
2023-12-23T08:04:01.079Z,4.23
2023-12-23T08:09:02.988Z,4.22
2023-12-23T08:14:05.187Z,4.23
2023-12-23T08:19:06.982Z,4.23
2023-12-23T08:24:08.694Z,4.12
2023-12-23T08:29:11.695Z,3.99
2023-12-23T08:34:13.763Z,4.04
2023-12-23T08:39:15.539Z,4.11
2023-12-23T08:44:17.353Z,4.00
2023-12-23T08:49:19.178Z,3.97
2023-12-23T08:54:20.942Z,3.83
2023-12-23T08:59:22.650Z,3.70
2023-12-23T09:04:24.338Z,3.75
2023-12-23T09:09:25.999Z,3.53
2023-12-23T09:14:28.087Z,2.98
2023-12-23T09:19:29.786Z,3.39
2023-12-23T09:24:31.451Z,3.60
2023-12-23T09:29:33.102Z,3.46
2023-12-23T09:34:34.792Z,3.60
2023-12-23T09:39:36.477Z,3.69
2023-12-23T09:44:38.397Z,3.26
2023-12-23T09:49:40.054Z,2.80
2023-12-23T09:54:49.459Z,3.11
2023-12-23T09:59:52.297Z,2.62
2023-12-23T10:04:54.125Z,2.97
2023-12-23T10:09:55.972Z,2.98
2023-12-23T10:14:57.709Z,3.11
2023-12-23T10:19:59.547Z,3.07
2023-12-23T10:25:01.934Z,2.96
2023-12-23T10:30:04.903Z,2.74
2023-12-23T10:35:08.058Z,2.91
2023-12-23T10:40:19.646Z,2.92
2023-12-23T10:45:22.538Z,2.92
2023-12-23T10:50:24.421Z,3.20
2023-12-23T10:55:26.380Z,2.98
2023-12-23T11:00:28.020Z,2.93
2023-12-23T11:05:30.175Z,2.81
2023-12-23T11:10:32.820Z,2.96
2023-12-23T11:15:38.549Z,3.10
2023-12-23T11:20:45.817Z,3.11
2023-12-23T11:25:47.502Z,2.87
2023-12-23T11:30:56.004Z,2.92
2023-12-23T11:36:02.630Z,3.09
2023-12-23T11:41:05.490Z,3.29
2023-12-23T11:46:07.245Z,3.50
2023-12-23T11:51:10.413Z,3.80
2023-12-23T11:56:12.271Z,3.60
2023-12-23T12:01:14.095Z,3.60
2023-12-23T12:06:15.990Z,3.46
2023-12-23T12:11:18.688Z,3.51
2023-12-23T12:16:20.470Z,3.37
2023-12-23T12:21:22.206Z,3.40
2023-12-23T12:26:23.930Z,3.56
2023-12-23T12:31:25.638Z,3.72
2023-12-23T12:36:27.339Z,3.74
2023-12-23T12:41:29.267Z,3.99
2023-12-23T12:46:33.357Z,3.71
2023-12-23T12:51:38.006Z,3.84
2023-12-23T12:56:40.966Z,3.96
2023-12-23T13:01:42.623Z,3.99
2023-12-23T13:06:44.466Z,4.08
2023-12-23T13:11:46.113Z,3.99
2023-12-23T13:16:47.940Z,4.01
2023-12-23T13:21:49.889Z,4.21
2023-12-23T13:26:51.539Z,4.12
2023-12-23T13:31:53.247Z,3.91
2023-12-23T13:36:55.062Z,3.92
2023-12-23T13:41:56.771Z,4.03
2023-12-23T13:47:01.438Z,4.03
2023-12-23T13:52:03.561Z,3.98
2023-12-23T13:57:05.508Z,4.27
2023-12-23T14:02:09.259Z,4.30
2023-12-23T14:07:11.329Z,4.13
2023-12-23T14:12:13.029Z,4.08
2023-12-23T14:17:14.747Z,4.00
2023-12-23T14:22:18.906Z,3.93
2023-12-23T14:27:20.819Z,3.97
2023-12-23T14:32:22.494Z,3.93
2023-12-23T14:37:27.891Z,3.97
2023-12-23T14:42:33.829Z,3.94
2023-12-23T14:47:35.535Z,3.91
2023-12-23T14:52:37.319Z,3.82
2023-12-23T14:57:38.957Z,3.90
2023-12-23T15:02:41.071Z,3.89
2023-12-23T15:07:42.717Z,3.75
2023-12-23T15:12:44.516Z,3.71
2023-12-23T15:17:46.437Z,3.79
2023-12-23T15:22:48.224Z,3.78
2023-12-23T15:27:49.894Z,3.87
2023-12-23T15:32:51.894Z,3.87
2023-12-23T15:37:53.860Z,3.85
2023-12-23T15:42:55.593Z,3.75
2023-12-23T15:47:57.265Z,3.87
2023-12-23T15:52:59.098Z,3.77
2023-12-23T15:58:02.930Z,3.88
2023-12-23T16:03:04.988Z,3.82
2023-12-23T16:08:09.622Z,3.84
2023-12-23T16:13:13.217Z,3.91
2023-12-23T16:18:14.959Z,3.96
2023-12-23T16:23:16.762Z,3.91
2023-12-23T16:28:18.536Z,3.87
2023-12-23T16:33:20.389Z,4.04
2023-12-23T16:38:22.127Z,4.17
2023-12-23T16:43:23.775Z,3.86
2023-12-23T16:48:25.574Z,4.04
2023-12-23T16:53:27.421Z,4.08
2023-12-23T16:58:29.757Z,4.07
2023-12-23T17:03:31.568Z,3.96
2023-12-23T17:08:33.297Z,4.11
2023-12-23T17:13:34.973Z,4.29
2023-12-23T17:18:36.720Z,4.34
2023-12-23T17:23:38.588Z,4.19
2023-12-23T17:28:40.406Z,4.27
2023-12-23T17:33:42.228Z,3.97
2023-12-23T17:38:44.341Z,4.24
2023-12-23T17:43:46.061Z,4.11
2023-12-23T17:48:47.930Z,4.25
2023-12-23T17:53:49.695Z,4.26
2023-12-23T17:58:51.641Z,4.29
2023-12-23T18:03:53.258Z,4.28
2023-12-23T18:08:54.919Z,4.13
2023-12-23T18:13:56.599Z,4.19
2023-12-23T18:18:58.330Z,4.20
2023-12-23T18:24:01.797Z,4.30
2023-12-23T18:29:03.529Z,4.36
2023-12-23T18:34:05.797Z,4.23
2023-12-23T18:39:07.544Z,4.19
2023-12-23T18:44:09.672Z,3.97
2023-12-23T18:49:11.839Z,4.07
2023-12-23T18:54:13.539Z,4.16
2023-12-23T18:59:16.867Z,4.10
2023-12-23T19:04:18.747Z,4.22
2023-12-23T19:09:20.536Z,4.37
2023-12-23T19:14:22.217Z,4.22
2023-12-23T19:19:23.934Z,4.49
2023-12-23T19:24:25.677Z,4.47
2023-12-23T19:29:27.581Z,4.53
2023-12-23T19:34:29.312Z,4.45
2023-12-23T19:39:30.981Z,4.54
2023-12-23T19:44:33.488Z,4.57
2023-12-23T19:49:35.229Z,4.51
2023-12-23T19:54:36.881Z,4.64
2023-12-23T19:59:38.770Z,4.67
2023-12-23T20:04:40.525Z,4.69
2023-12-23T20:09:42.200Z,4.70
2023-12-23T20:14:44.966Z,4.74
2023-12-23T20:19:46.671Z,4.66
2023-12-23T20:24:48.370Z,4.65
2023-12-23T20:29:50.052Z,4.66
2023-12-23T20:34:51.876Z,4.62
2023-12-23T20:39:53.586Z,4.69
2023-12-23T20:44:55.228Z,4.69
2023-12-23T20:49:58.740Z,4.73
2023-12-23T20:55:00.426Z,4.78
2023-12-23T21:00:03.225Z,4.71
2023-12-23T21:05:05.314Z,4.74
2023-12-23T21:10:08.452Z,4.73
2023-12-23T21:15:11.105Z,4.64
2023-12-23T21:20:12.897Z,4.62
2023-12-23T21:25:14.675Z,4.71
2023-12-23T21:30:16.657Z,4.68
2023-12-23T21:35:18.472Z,4.75
2023-12-23T21:40:20.868Z,4.71
2023-12-23T21:45:22.487Z,4.70
2023-12-23T21:50:24.281Z,4.80
2023-12-23T21:55:29.538Z,4.74
2023-12-23T22:00:31.233Z,4.70
2023-12-23T22:05:32.982Z,4.65
2023-12-23T22:10:35.125Z,4.77
2023-12-23T22:15:36.842Z,4.75
2023-12-23T22:20:38.585Z,4.73
2023-12-23T22:25:40.572Z,4.74
2023-12-23T22:30:42.304Z,4.80
2023-12-23T22:35:47.215Z,4.87
2023-12-23T22:40:49.485Z,4.83
2023-12-23T22:45:51.134Z,4.82
2023-12-23T22:50:52.797Z,4.82
2023-12-23T22:55:54.602Z,4.78
2023-12-23T23:00:56.414Z,4.80
2023-12-23T23:05:58.583Z,4.89
2023-12-23T23:11:00.394Z,4.92
2023-12-23T23:16:02.156Z,4.94
2023-12-23T23:21:03.986Z,4.90
2023-12-23T23:26:06.684Z,4.98
2023-12-23T23:31:08.370Z,4.74
2023-12-23T23:36:17.382Z,4.71
2023-12-23T23:41:19.536Z,4.82
2023-12-23T23:46:21.734Z,4.95
2023-12-23T23:51:23.794Z,4.96
2023-12-23T23:56:25.632Z,4.89
